Mnt Lake Park, Maryland
Current Conditions -  °F | °C
As of 2:00 AM on Sunday 26 Oct 2014 (Local Time) from K2G4 Reporting Station
Clear Clear  
Wind Chill: 50°   Ceiling: Unl
Heat Index: 50°   Visibility: 10mi
Dew Point: 32°   Wind: 13mph
Humidity: 50%   Direction: 290°WNW
Pressure: 29.81"   Gusts: 24mph
Location:  39.3804°N, 79.3888°W
Report Text: K2G4 260600Z AUTO 29011G21KT 10SM CLR 10/00 A2981 RMK AO1
Loading
Personal Weather Stations






























Interactive Weather Map
Tropical Storm Tracking
New forecast layout! Learn more

10-Day Weather Forecast

Advertisements
Track Severe Weather on mobile